Time;durP1;ratioP1;P1;durP2;ratioP2;P2;SDS_P1;SDS_P2;PMS_P1;PMS_P2;Temp;Humidity;BMP_temperature;BMP_pressure;BME280_temperature;BME280_humidity;BME280_pressure;Samples;Min_cycle;Max_cycle;Signal;HPM_P1;HPM_P2
2021/05/31 00:00:20;;;;;;;2.80;2.22;;;10.30;69.20;;;;;;3575965;40;20049;-66
2021/05/31 00:02:47;;;;;;;4.18;2.65;;;10.20;69.10;;;;;;3574441;40;20036;-66
2021/05/31 00:05:13;;;;;;;3.47;2.17;;;10.20;69.10;;;;;;3577600;40;20129;-66
2021/05/31 00:07:39;;;;;;;4.18;2.10;;;10.20;69.20;;;;;;3570398;40;20023;-65
2021/05/31 00:10:07;;;;;;;5.47;2.55;;;10.20;69.30;;;;;;3579242;40;20037;-66
2021/05/31 00:12:33;;;;;;;3.42;2.53;;;10.10;69.20;;;;;;3578446;40;20040;-66
2021/05/31 00:14:59;;;;;;;2.85;2.28;;;10.10;69.80;;;;;;3575970;40;20033;-66
2021/05/31 00:17:26;;;;;;;3.10;2.35;;;10.00;70.10;;;;;;3572904;40;20035;-66
2021/05/31 00:19:53;;;;;;;3.90;2.60;;;10.00;70.70;;;;;;3571561;40;20562;-66
2021/05/31 00:22:20;;;;;;;4.50;2.60;;;9.90;70.20;;;;;;3568166;40;20064;-66
2021/05/31 00:24:48;;;;;;;4.53;2.85;;;9.90;70.40;;;;;;3571112;40;20473;-66
2021/05/31 00:27:15;;;;;;;3.83;2.78;;;9.80;70.90;;;;;;3573583;40;20024;-66
2021/05/31 00:29:41;;;;;;;4.72;2.72;;;9.80;71.30;;;;;;3575700;40;20052;-66
2021/05/31 00:32:07;;;;;;;3.33;2.55;;;9.70;70.70;;;;;;3577051;40;20142;-66
2021/05/31 00:34:33;;;;;;;3.40;2.40;;;9.70;70.80;;;;;;3579077;40;20052;-66
2021/05/31 00:36:59;;;;;;;4.05;2.25;;;9.70;70.50;;;;;;3578561;40;20048;-66
2021/05/31 00:39:25;;;;;;;3.80;2.97;;;9.70;71.10;;;;;;3574995;40;20703;-66
2021/05/31 00:41:52;;;;;;;4.85;2.70;;;9.70;71.10;;;;;;3575020;40;20426;-66
2021/05/31 00:44:19;;;;;;;4.00;2.60;;;9.70;71.10;;;;;;3572889;40;20060;-66
2021/05/31 00:46:45;;;;;;;5.22;2.50;;;9.60;71.10;;;;;;3572056;40;20029;-66
2021/05/31 00:49:11;;;;;;;4.20;2.58;;;9.50;71.10;;;;;;3571280;40;20049;-66
2021/05/31 00:51:37;;;;;;;5.85;2.60;;;9.50;71.50;;;;;;3572434;40;20029;-66
2021/05/31 00:54:03;;;;;;;3.28;2.30;;;9.50;71.70;;;;;;3574328;40;20043;-66
2021/05/31 00:56:29;;;;;;;3.08;2.50;;;9.50;71.60;;;;;;3575438;40;20098;-66
2021/05/31 00:58:55;;;;;;;4.03;2.55;;;9.40;71.60;;;;;;3578285;40;20043;-66
2021/05/31 01:01:21;;;;;;;3.65;2.60;;;9.40;71.90;;;;;;3579614;40;20031;-66
2021/05/31 01:03:47;;;;;;;3.70;2.42;;;9.30;72.70;;;;;;3578681;40;20137;-66
2021/05/31 01:06:18;;;;;;;4.65;2.40;;;9.30;72.90;;;;;;3576257;40;20037;-66
2021/05/31 01:09:00;;;;;;;3.03;2.22;;;9.30;72.80;;;;;;3574612;40;20084;-66
2021/05/31 01:11:49;;;;;;;5.10;2.92;;;9.30;72.80;;;;;;3571526;40;20025;-65
2021/05/31 01:14:22;;;;;;;5.00;2.83;;;9.20;72.90;;;;;;3570881;40;20049;-66
2021/05/31 01:17:03;;;;;;;3.63;2.50;;;9.20;73.10;;;;;;3571773;40;20080;-67
2021/05/31 01:19:47;;;;;;;3.22;2.50;;;9.10;74.20;;;;;;3573510;40;20036;-66
2021/05/31 01:22:13;;;;;;;4.53;2.25;;;9.10;73.80;;;;;;3575259;40;20449;-66
2021/05/31 01:24:57;;;;;;;2.38;2.03;;;9.00;74.00;;;;;;3576304;40;20054;-66
2021/05/31 01:27:27;;;;;;;2.63;2.10;;;9.00;74.20;;;;;;3578945;40;20062;-66
2021/05/31 01:30:00;;;;;;;5.13;2.33;;;9.00;74.20;;;;;;3579328;40;20040;-66
2021/05/31 01:32:50;;;;;;;4.30;2.45;;;9.00;74.30;;;;;;3577464;40;20035;-66
2021/05/31 01:35:34;;;;;;;3.92;2.25;;;9.00;74.70;;;;;;3575076;40;20113;-66
2021/05/31 01:38:01;;;;;;;4.10;2.35;;;8.90;74.30;;;;;;3571723;40;20029;-66
2021/05/31 01:40:27;;;;;;;4.53;2.15;;;8.90;74.30;;;;;;3571815;40;20037;-66
2021/05/31 01:42:57;;;;;;;3.78;2.60;;;8.80;74.60;;;;;;3569976;40;20163;-64
2021/05/31 01:45:23;;;;;;;4.10;2.45;;;8.80;74.70;;;;;;3577125;40;20028;-66
2021/05/31 01:47:50;;;;;;;5.50;2.78;;;8.70;74.80;;;;;;3574493;40;20061;-65
2021/05/31 01:50:17;;;;;;;5.65;2.40;;;8.70;75.20;;;;;;3574897;40;20025;-65
2021/05/31 01:52:45;;;;;;;5.65;2.70;;;8.70;75.70;;;;;;3573084;40;20607;-65
2021/05/31 01:55:13;;;;;;;3.15;2.13;;;8.60;76.10;;;;;;3573389;40;20031;-65
2021/05/31 01:57:41;;;;;;;5.03;2.50;;;8.60;76.20;;;;;;3572181;40;20044;-65
2021/05/31 02:00:08;;;;;;;4.65;2.60;;;8.50;76.30;;;;;;3573184;40;20130;-66
2021/05/31 02:02:35;;;;;;;3.42;2.67;;;8.50;76.40;;;;;;3573474;40;20076;-65
2021/05/31 02:05:01;;;;;;;3.10;2.63;;;8.50;76.40;;;;;;3576221;40;20033;-65
2021/05/31 02:07:26;;;;;;;4.47;2.78;;;8.50;76.40;;;;;;3571267;40;20075;-65
2021/05/31 02:09:52;;;;;;;3.75;2.58;;;8.50;76.30;;;;;;3576877;40;20122;-65
2021/05/31 02:12:22;;;;;;;4.30;2.60;;;8.40;76.40;;;;;;3572720;40;20461;-65
2021/05/31 02:14:59;;;;;;;3.28;2.40;;;8.40;76.70;;;;;;3574213;40;20063;-66
2021/05/31 02:17:37;;;;;;;3.00;2.30;;;8.40;76.80;;;;;;3572486;40;20092;-66
2021/05/31 02:20:11;;;;;;;4.55;2.70;;;8.40;76.80;;;;;;3571000;40;20033;-65
2021/05/31 02:22:42;;;;;;;4.55;2.53;;;8.40;76.80;;;;;;3569523;40;20714;-65
2021/05/31 02:25:08;;;;;;;5.40;3.30;;;8.30;76.80;;;;;;3572246;40;20017;-65
2021/05/31 02:27:35;;;;;;;3.42;2.58;;;8.40;76.60;;;;;;3574200;40;20045;-65
2021/05/31 02:30:01;;;;;;;3.40;2.38;;;8.30;76.40;;;;;;3576052;40;20029;-65
2021/05/31 02:32:30;;;;;;;4.45;2.45;;;8.20;76.40;;;;;;3564989;40;20032;-65
2021/05/31 02:34:57;;;;;;;2.65;2.40;;;8.30;76.60;;;;;;3572484;40;20036;-65
2021/05/31 02:37:41;;;;;;;5.15;2.55;;;8.20;76.80;;;;;;3577472;40;20041;-65
2021/05/31 02:40:08;;;;;;;6.35;2.90;;;8.10;77.20;;;;;;3574373;40;20025;-64
2021/05/31 02:42:46;;;;;;;4.05;2.60;;;8.10;77.30;;;;;;3573659;40;20041;-65
2021/05/31 02:45:13;;;;;;;3.28;2.60;;;8.10;77.70;;;;;;3575465;40;20036;-65
2021/05/31 02:47:39;;;;;;;6.47;2.97;;;8.00;77.70;;;;;;3573971;40;20372;-65
2021/05/31 02:50:05;;;;;;;5.70;2.88;;;8.00;77.30;;;;;;3570819;40;20048;-65
2021/05/31 02:52:31;;;;;;;6.63;2.90;;;8.00;78.00;;;;;;3572168;40;20047;-64
2021/05/31 02:54:56;;;;;;;4.13;2.75;;;8.00;78.00;;;;;;3574290;40;20021;-66
2021/05/31 02:57:22;;;;;;;5.03;2.80;;;8.00;78.20;;;;;;3572407;40;20075;-65
2021/05/31 02:59:48;;;;;;;6.40;2.95;;;8.00;78.20;;;;;;3577865;40;20886;-65
2021/05/31 03:02:13;;;;;;;4.03;2.90;;;8.00;77.80;;;;;;3572566;40;20020;-65
2021/05/31 03:04:39;;;;;;;4.20;2.88;;;8.00;77.80;;;;;;3576456;40;20037;-65
2021/05/31 03:07:05;;;;;;;4.30;2.45;;;7.90;77.60;;;;;;3572736;40;20760;-65
2021/05/31 03:09:31;;;;;;;7.25;2.58;;;7.90;77.80;;;;;;3574833;40;20033;-65
2021/05/31 03:11:56;;;;;;;4.93;2.90;;;7.90;78.00;;;;;;3572876;40;20080;-65
2021/05/31 03:14:22;;;;;;;4.13;2.70;;;7.90;78.20;;;;;;3575695;40;20023;-65
2021/05/31 03:16:48;;;;;;;5.18;3.20;;;7.90;77.90;;;;;;3573485;40;20679;-65
2021/05/31 03:19:13;;;;;;;6.28;2.72;;;7.90;77.60;;;;;;3572692;40;20044;-65
2021/05/31 03:21:39;;;;;;;3.72;2.70;;;7.90;77.80;;;;;;3574244;40;20874;-65
2021/05/31 03:24:05;;;;;;;4.72;2.83;;;7.90;77.60;;;;;;3576903;40;20055;-65
2021/05/31 03:26:31;;;;;;;6.32;3.67;;;7.90;77.40;;;;;;3578364;40;20048;-65
2021/05/31 03:28:56;;;;;;;3.83;2.60;;;7.80;77.30;;;;;;3569984;40;20057;-65
2021/05/31 03:31:22;;;;;;;5.88;2.92;;;7.80;77.70;;;;;;3572592;40;20072;-65
2021/05/31 03:33:48;;;;;;;4.32;2.70;;;7.80;77.80;;;;;;3572278;40;20056;-65
2021/05/31 03:36:13;;;;;;;4.80;3.20;;;7.70;77.80;;;;;;3574647;40;20095;-65
2021/05/31 03:38:39;;;;;;;4.70;2.50;;;7.70;77.90;;;;;;3576677;40;20044;-65
2021/05/31 03:41:05;;;;;;;4.53;2.92;;;7.70;78.10;;;;;;3578980;40;20731;-65
2021/05/31 03:43:31;;;;;;;3.33;2.53;;;7.60;78.50;;;;;;3571978;40;20114;-65
2021/05/31 03:45:56;;;;;;;5.03;2.90;;;7.60;79.00;;;;;;3574849;40;20036;-65
2021/05/31 03:48:22;;;;;;;4.57;2.85;;;7.60;79.90;;;;;;3573877;40;20037;-65
2021/05/31 03:50:48;;;;;;;5.10;2.75;;;7.70;79.40;;;;;;3571583;40;20045;-65
2021/05/31 03:53:13;;;;;;;3.90;2.45;;;7.60;79.60;;;;;;3572597;40;20051;-65
2021/05/31 03:55:39;;;;;;;5.07;2.83;;;7.60;79.90;;;;;;3572179;40;20420;-65
2021/05/31 03:58:05;;;;;;;5.28;3.00;;;7.70;80.20;;;;;;3573057;40;20041;-65
2021/05/31 04:00:30;;;;;;;4.85;2.80;;;7.80;80.20;;;;;;3574065;40;20828;-66
2021/05/31 04:02:56;;;;;;;4.35;2.42;;;7.80;80.40;;;;;;3572734;40;20039;-65
2021/05/31 04:05:25;;;;;;;3.45;2.60;;;7.90;80.20;;;;;;3575512;40;20036;-66
2021/05/31 04:13:20;;;;;;;4.35;2.75;;;7.90;80.40;;;;;;3573045;40;20063;-65
2021/05/31 04:15:46;;;;;;;7.03;3.20;;;8.00;80.80;;;;;;3572963;40;20658;-65
2021/05/31 04:18:11;;;;;;;7.55;2.83;;;8.00;81.00;;;;;;3573491;40;20027;-65
2021/05/31 04:20:37;;;;;;;7.85;3.25;;;8.10;81.20;;;;;;3573906;40;20047;-65
2021/05/31 04:23:03;;;;;;;6.50;3.10;;;8.10;81.20;;;;;;3573284;40;20043;-66
2021/05/31 04:25:29;;;;;;;6.28;3.10;;;8.10;81.00;;;;;;3576822;40;20501;-66
2021/05/31 04:27:55;;;;;;;7.80;3.08;;;8.20;81.00;;;;;;3575159;40;20033;-65
2021/05/31 04:30:21;;;;;;;6.43;3.22;;;8.30;80.90;;;;;;3574509;40;20029;-65
2021/05/31 04:32:47;;;;;;;7.07;3.47;;;8.40;80.90;;;;;;3574281;40;20021;-65
2021/05/31 04:35:13;;;;;;;5.10;3.00;;;8.40;81.00;;;;;;3571780;40;20096;-65
2021/05/31 04:37:39;;;;;;;6.80;3.45;;;8.50;81.10;;;;;;3574642;40;20025;-65
2021/05/31 04:40:05;;;;;;;6.18;3.45;;;8.50;81.00;;;;;;3575163;40;20098;-65
2021/05/31 04:42:31;;;;;;;4.50;3.30;;;8.60;80.80;;;;;;3573524;40;20048;-65
2021/05/31 04:44:57;;;;;;;8.10;3.65;;;8.70;80.80;;;;;;3577418;40;20100;-65
2021/05/31 04:47:22;;;;;;;6.78;3.45;;;8.70;80.80;;;;;;3574604;40;20025;-65
2021/05/31 04:49:48;;;;;;;6.38;3.40;;;8.80;80.80;;;;;;3576093;40;20021;-65
2021/05/31 04:52:14;;;;;;;4.78;2.88;;;8.80;81.20;;;;;;3574187;40;20280;-65
2021/05/31 04:54:41;;;;;;;5.72;3.47;;;8.90;81.50;;;;;;3574932;40;20036;-65
2021/05/31 04:57:07;;;;;;;7.07;4.10;;;9.00;81.60;;;;;;3574235;40;20021;-66
2021/05/31 04:59:32;;;;;;;5.75;3.28;;;9.10;81.60;;;;;;3573566;40;20271;-65
2021/05/31 05:01:58;;;;;;;7.75;3.70;;;9.20;81.30;;;;;;3571324;40;20028;-66
2021/05/31 05:04:24;;;;;;;6.43;3.30;;;9.40;80.90;;;;;;3574206;40;20044;-65
2021/05/31 05:06:49;;;;;;;10.30;4.03;;;9.50;80.50;;;;;;3573326;40;20163;-65
2021/05/31 05:09:15;;;;;;;7.25;3.60;;;9.50;80.50;;;;;;3575929;40;20141;-65
2021/05/31 05:11:41;;;;;;;8.32;4.10;;;9.70;80.60;;;;;;3573240;40;20231;-65
2021/05/31 05:14:06;;;;;;;5.43;3.53;;;9.80;80.50;;;;;;3579074;40;20421;-66
2021/05/31 05:16:32;;;;;;;9.57;3.53;;;9.90;80.00;;;;;;3574391;40;20025;-65
2021/05/31 05:18:58;;;;;;;5.88;3.28;;;10.10;79.80;;;;;;3574233;40;20025;-66
2021/05/31 05:21:24;;;;;;;5.00;3.38;;;10.40;79.30;;;;;;3573664;40;20103;-65
2021/05/31 05:23:49;;;;;;;5.88;3.45;;;10.80;77.90;;;;;;3572277;40;20115;-66
2021/05/31 05:26:18;;;;;;;5.30;2.97;;;11.20;76.60;;;;;;3575675;40;20032;-65
2021/05/31 05:28:44;;;;;;;6.35;3.30;;;11.50;75.20;;;;;;3578304;40;20103;-66
2021/05/31 05:31:11;;;;;;;6.55;3.25;;;11.70;74.40;;;;;;3576436;40;20108;-66
2021/05/31 05:33:38;;;;;;;5.30;2.97;;;11.80;74.30;;;;;;3574997;40;20040;-65
2021/05/31 05:36:32;;;;;;;5.28;3.33;;;11.90;73.90;;;;;;3576492;40;20044;-65
2021/05/31 05:42:06;;;;;;;5.72;3.17;;;12.50;71.60;;;;;;3568800;40;20540;-66
2021/05/31 05:49:35;;;;;;;5.47;3.00;;;13.60;67.30;;;;;;3576158;40;20041;-65
2021/05/31 05:52:01;;;;;;;4.95;3.05;;;13.80;65.60;;;;;;3576343;40;20032;-66
2021/05/31 05:54:26;;;;;;;3.95;2.55;;;13.90;66.90;;;;;;3573674;40;20051;-66
2021/05/31 05:56:52;;;;;;;6.47;2.80;;;14.10;65.80;;;;;;3577387;40;20037;-65
2021/05/31 05:59:17;;;;;;;5.85;3.05;;;14.20;64.30;;;;;;3575553;40;20045;-66
2021/05/31 06:01:44;;;;;;;5.32;2.90;;;14.30;63.60;;;;;;3571773;40;20048;-65
2021/05/31 06:04:10;;;;;;;7.15;2.88;;;14.60;64.20;;;;;;3570864;40;20347;-66
2021/05/31 06:06:36;;;;;;;4.13;2.40;;;15.10;63.00;;;;;;3571452;40;20055;-63
2021/05/31 06:09:02;;;;;;;4.70;3.10;;;15.60;60.10;;;;;;3578255;40;20047;-66
2021/05/31 06:11:28;;;;;;;4.50;2.80;;;15.80;58.70;;;;;;3573561;40;20039;-66
2021/05/31 06:13:54;;;;;;;5.93;3.65;;;15.90;58.10;;;;;;3574619;40;20040;-66
2021/05/31 06:16:20;;;;;;;5.55;2.65;;;15.90;58.10;;;;;;3576210;40;20146;-66
2021/05/31 06:18:46;;;;;;;5.10;2.40;;;16.10;58.70;;;;;;3577414;40;20032;-66
2021/05/31 06:21:12;;;;;;;3.60;2.15;;;16.30;57.90;;;;;;3570215;40;20025;-65
2021/05/31 06:23:37;;;;;;;8.05;2.72;;;16.30;57.00;;;;;;3575680;40;20029;-67
2021/05/31 06:26:03;;;;;;;4.60;2.83;;;16.20;57.00;;;;;;3572944;39;20016;-68
2021/05/31 06:28:29;;;;;;;4.88;2.67;;;16.10;56.90;;;;;;3575250;40;20053;-69
2021/05/31 06:30:55;;;;;;;11.65;3.58;;;16.00;57.40;;;;;;3575196;40;20040;-67
2021/05/31 06:33:20;;;;;;;10.70;3.30;;;16.00;57.50;;;;;;3574324;40;20045;-67
2021/05/31 06:35:48;;;;;;;10.30;2.83;;;15.90;57.40;;;;;;3576924;40;20423;-67
2021/05/31 06:38:14;;;;;;;7.05;2.47;;;15.90;57.10;;;;;;3572719;40;20033;-67
2021/05/31 06:40:40;;;;;;;7.93;2.75;;;16.10;56.70;;;;;;3573805;40;20032;-68
2021/05/31 06:43:06;;;;;;;6.88;2.95;;;16.20;56.80;;;;;;3572686;40;20300;-67
2021/05/31 06:45:33;;;;;;;4.15;2.38;;;16.20;57.00;;;;;;3579845;40;20039;-67
2021/05/31 06:48:01;;;;;;;5.72;2.45;;;16.10;57.40;;;;;;3578149;39;20088;-67
2021/05/31 06:50:30;;;;;;;4.78;2.70;;;16.00;57.10;;;;;;3571721;40;20033;-67
2021/05/31 06:52:57;;;;;;;5.45;2.42;;;16.00;57.90;;;;;;3574508;40;20040;-67
2021/05/31 06:55:25;;;;;;;3.92;2.40;;;16.00;57.90;;;;;;3574043;40;20048;-67
2021/05/31 06:57:51;;;;;;;4.25;2.33;;;16.10;56.60;;;;;;3572043;40;20085;-66
2021/05/31 07:00:20;;;;;;;7.30;2.70;;;16.10;56.60;;;;;;3571364;40;20040;-67
2021/05/31 07:02:46;;;;;;;3.08;2.22;;;16.10;56.80;;;;;;3574864;40;20118;-67
2021/05/31 07:05:12;;;;;;;6.05;3.40;;;16.10;57.20;;;;;;3574903;40;20604;-67
2021/05/31 07:07:38;;;;;;;6.43;2.70;;;16.20;57.10;;;;;;3575326;40;20040;-64
2021/05/31 07:10:05;;;;;;;3.28;2.45;;;16.20;57.10;;;;;;3577584;40;20029;-63
2021/05/31 07:12:32;;;;;;;4.05;2.05;;;16.30;56.90;;;;;;3570652;40;20311;-68
2021/05/31 07:14:59;;;;;;;5.22;3.05;;;16.30;56.90;;;;;;3571785;40;20105;-67
2021/05/31 07:17:26;;;;;;;5.15;2.83;;;16.40;58.00;;;;;;3573930;40;20047;-67
2021/05/31 07:19:52;;;;;;;4.30;2.45;;;16.50;57.40;;;;;;3574906;40;20395;-68
2021/05/31 07:22:23;;;;;;;3.05;2.00;;;16.60;57.60;;;;;;3574672;40;20558;-67
2021/05/31 07:24:50;;;;;;;6.80;2.97;;;16.70;56.80;;;;;;3568379;40;20029;-67
2021/05/31 07:27:16;;;;;;;6.68;2.40;;;16.80;56.80;;;;;;3573277;40;20048;-67
2021/05/31 07:29:42;;;;;;;6.25;2.42;;;16.90;56.30;;;;;;3575006;40;20437;-67
2021/05/31 07:32:08;;;;;;;5.20;2.50;;;17.00;55.20;;;;;;3572829;40;20078;-67
2021/05/31 07:34:34;;;;;;;5.85;3.00;;;17.00;54.80;;;;;;3572247;40;20048;-67
2021/05/31 07:37:00;;;;;;;5.55;3.03;;;17.10;55.00;;;;;;3570391;40;20367;-68
2021/05/31 07:39:26;;;;;;;3.13;2.35;;;17.10;55.70;;;;;;3570261;40;20043;-67
2021/05/31 07:41:52;;;;;;;7.78;2.63;;;17.20;55.70;;;;;;3576066;40;20025;-67
2021/05/31 07:44:19;;;;;;;3.95;2.00;;;17.40;54.00;;;;;;3571843;40;20309;-67
2021/05/31 07:46:44;;;;;;;3.67;2.75;;;17.30;54.50;;;;;;3573373;40;20017;-68
2021/05/31 07:49:10;;;;;;;4.65;2.00;;;17.40;55.20;;;;;;3569721;40;20423;-67
2021/05/31 07:51:41;;;;;;;3.70;2.20;;;17.40;54.60;;;;;;3574540;40;20453;-66
2021/05/31 07:54:07;;;;;;;5.30;2.03;;;17.50;54.90;;;;;;3571584;40;20093;-67
2021/05/31 07:56:33;;;;;;;6.65;2.30;;;17.60;53.50;;;;;;3570949;40;20088;-68
2021/05/31 07:58:59;;;;;;;4.70;1.95;;;17.60;53.30;;;;;;3571826;40;20123;-67
2021/05/31 08:01:25;;;;;;;3.13;2.10;;;17.70;53.80;;;;;;3574244;40;20381;-67
2021/05/31 08:03:51;;;;;;;4.72;2.65;;;17.70;53.20;;;;;;3573589;40;20101;-67
2021/05/31 08:06:17;;;;;;;5.13;2.25;;;17.80;54.20;;;;;;3559892;40;20028;-67
2021/05/31 08:08:43;;;;;;;3.17;1.83;;;17.90;53.10;;;;;;3570312;40;20037;-67
2021/05/31 08:11:10;;;;;;;3.70;1.75;;;17.90;53.30;;;;;;3571275;40;20024;-67
2021/05/31 08:13:37;;;;;;;3.47;2.05;;;18.00;52.10;;;;;;3574596;40;20036;-65
2021/05/31 08:16:04;;;;;;;3.45;2.15;;;18.10;52.90;;;;;;3576162;40;20039;-68
2021/05/31 08:18:30;;;;;;;5.97;1.90;;;18.20;51.40;;;;;;3577629;40;20088;-67
2021/05/31 08:20:56;;;;;;;3.03;1.70;;;18.30;50.10;;;;;;3570208;40;20048;-67
2021/05/31 08:23:22;;;;;;;4.25;2.20;;;18.40;49.40;;;;;;3572949;40;20111;-68
2021/05/31 08:25:48;;;;;;;4.88;2.50;;;18.50;50.30;;;;;;3575124;40;20044;-68
2021/05/31 08:28:13;;;;;;;4.25;2.10;;;18.60;50.80;;;;;;3577405;40;20069;-68
2021/05/31 08:30:43;;;;;;;4.97;2.90;;;18.60;51.30;;;;;;3571747;40;20039;-68
2021/05/31 08:33:09;;;;;;;3.75;2.05;;;18.70;51.70;;;;;;3573297;40;20500;-68
2021/05/31 08:35:40;;;;;;;4.57;2.35;;;18.70;50.80;;;;;;3572230;40;20038;-67
2021/05/31 08:38:06;;;;;;;3.25;2.30;;;18.90;50.80;;;;;;3574296;40;20101;-68
2021/05/31 08:40:33;;;;;;;3.08;1.98;;;19.10;49.70;;;;;;3573192;40;20057;-68
2021/05/31 08:42:59;;;;;;;10.30;4.30;;;19.30;49.80;;;;;;3575816;40;20230;-67
2021/05/31 08:45:29;;;;;;;4.40;3.35;;;19.30;49.30;;;;;;3579412;40;20060;-67
2021/05/31 08:47:56;;;;;;;2.00;1.80;;;19.30;50.00;;;;;;3575624;40;20483;-67
2021/05/31 08:50:27;;;;;;;6.47;2.28;;;19.30;49.80;;;;;;3574177;40;20033;-67
2021/05/31 08:52:54;;;;;;;4.43;2.22;;;19.40;49.90;;;;;;3574013;40;20068;-68
2021/05/31 08:55:21;;;;;;;3.63;2.00;;;19.50;49.50;;;;;;3571072;40;20024;-68
2021/05/31 08:57:49;;;;;;;5.53;2.20;;;19.50;47.30;;;;;;3572993;40;20346;-67
2021/05/31 09:00:19;;;;;;;3.45;2.75;;;19.60;48.20;;;;;;3577231;40;20036;-67
2021/05/31 09:02:44;;;;;;;3.50;1.95;;;19.80;47.70;;;;;;3571350;40;20039;-66
2021/05/31 09:05:10;;;;;;;3.50;2.10;;;19.80;47.10;;;;;;3574962;40;20029;-65
2021/05/31 09:07:37;;;;;;;4.18;1.95;;;19.80;48.80;;;;;;3576652;40;20031;-67
2021/05/31 09:10:07;;;;;;;4.88;2.15;;;20.00;48.40;;;;;;3576772;40;20825;-67
2021/05/31 09:12:37;;;;;;;2.63;1.73;;;19.90;48.10;;;;;;3575236;40;20033;-67
2021/05/31 09:15:05;;;;;;;4.13;1.88;;;20.00;46.40;;;;;;3572170;40;20041;-67
2021/05/31 09:17:33;;;;;;;3.08;1.80;;;20.10;44.90;;;;;;3574327;40;20061;-67
2021/05/31 09:19:59;;;;;;;4.10;1.88;;;20.10;45.50;;;;;;3573263;40;20760;-67
2021/05/31 09:22:26;;;;;;;4.18;1.80;;;20.20;45.60;;;;;;3573476;40;20051;-67
2021/05/31 09:25:05;;;;;;;4.78;2.20;;;20.30;45.60;;;;;;3580662;40;20152;-67
2021/05/31 09:27:31;;;;;;;5.63;2.13;;;20.40;46.00;;;;;;3571174;40;20037;-67
2021/05/31 09:30:06;;;;;;;3.03;1.88;;;20.40;45.20;;;;;;3574398;40;20106;-68
2021/05/31 09:32:33;;;;;;;5.82;2.03;;;20.30;45.70;;;;;;3569362;40;20092;-68
2021/05/31 09:35:11;;;;;;;3.83;1.67;;;20.30;45.20;;;;;;3577044;40;20036;-68
2021/05/31 09:37:45;;;;;;;5.63;1.67;;;20.30;43.40;;;;;;3570735;40;20418;-68
2021/05/31 09:40:16;;;;;;;8.38;2.70;;;20.30;40.60;;;;;;3578120;40;20137;-68
2021/05/31 09:43:03;;;;;;;3.47;1.92;;;20.40;39.80;;;;;;3574539;40;20129;-67
2021/05/31 09:45:30;;;;;;;4.72;1.98;;;20.50;40.00;;;;;;3573457;40;20041;-68
2021/05/31 09:48:03;;;;;;;3.60;1.70;;;20.50;40.80;;;;;;3574736;40;20029;-67
2021/05/31 09:50:33;;;;;;;3.97;1.70;;;20.60;41.30;;;;;;3575394;40;20117;-68
2021/05/31 09:53:16;;;;;;;4.20;1.90;;;20.70;39.50;;;;;;3571443;40;20037;-67
2021/05/31 09:55:46;;;;;;;2.58;1.80;;;20.70;41.60;;;;;;3572647;40;20904;-68
2021/05/31 09:58:17;;;;;;;2.38;1.65;;;20.70;41.20;;;;;;3584155;40;20135;-68
2021/05/31 10:00:51;;;;;;;3.17;1.85;;;20.70;39.00;;;;;;3574385;40;20044;-68
2021/05/31 10:03:34;;;;;;;2.90;1.52;;;20.70;40.20;;;;;;3571571;40;20029;-68
2021/05/31 10:08:55;;;;;;;5.20;2.60;;;20.70;39.50;;;;;;3593985;39;20059;-67
2021/05/31 10:11:20;;;;;;;4.97;2.47;;;20.70;41.00;;;;;;3575550;40;20025;-68
2021/05/31 10:13:47;;;;;;;3.70;1.80;;;20.90;40.70;;;;;;3576630;40;20088;-67
2021/05/31 10:16:12;;;;;;;6.07;2.20;;;21.00;39.80;;;;;;3572996;40;20037;-67
2021/05/31 10:18:40;;;;;;;5.45;2.42;;;21.00;39.60;;;;;;3577845;40;20126;-67
2021/05/31 10:21:08;;;;;;;3.33;2.08;;;21.10;39.40;;;;;;3574696;40;20399;-68
2021/05/31 10:23:34;;;;;;;2.30;1.50;;;21.10;40.30;;;;;;3575586;40;20068;-68
2021/05/31 10:26:02;;;;;;;3.38;1.77;;;21.20;39.70;;;;;;3575351;40;20611;-68
2021/05/31 10:28:31;;;;;;;4.97;2.20;;;21.20;40.40;;;;;;3573873;40;20704;-68
2021/05/31 10:31:03;;;;;;;7.32;2.20;;;21.20;38.90;;;;;;3580664;40;20032;-68
2021/05/31 10:33:30;;;;;;;2.55;1.88;;;21.30;38.50;;;;;;3580205;40;20489;-68
2021/05/31 10:36:07;;;;;;;5.43;2.38;;;21.20;39.90;;;;;;3579112;40;20301;-69
2021/05/31 10:38:36;;;;;;;3.70;2.00;;;21.20;39.10;;;;;;3570210;40;20044;-68
2021/05/31 10:41:11;;;;;;;2.83;1.75;;;21.30;38.80;;;;;;3573879;40;20040;-68
2021/05/31 10:43:43;;;;;;;4.00;2.10;;;21.30;37.30;;;;;;3571839;40;20037;-68
2021/05/31 10:46:15;;;;;;;3.70;2.10;;;21.40;38.10;;;;;;3577565;40;20037;-68
2021/05/31 10:48:50;;;;;;;4.72;2.10;;;21.50;38.20;;;;;;3572306;40;20047;-68
2021/05/31 10:51:19;;;;;;;5.60;2.35;;;21.80;38.20;;;;;;3573034;40;20651;-68
2021/05/31 10:53:45;;;;;;;3.38;2.08;;;22.00;37.40;;;;;;3573281;40;20323;-68
2021/05/31 10:56:22;;;;;;;2.53;1.55;;;22.30;34.90;;;;;;3562900;40;20041;-68
2021/05/31 10:58:52;;;;;;;4.10;2.05;;;22.30;35.80;;;;;;3575202;40;20828;-68
2021/05/31 11:01:39;;;;;;;2.15;1.60;;;22.20;36.00;;;;;;3572470;40;20146;-68
2021/05/31 11:04:15;;;;;;;5.70;2.10;;;22.10;37.00;;;;;;3574764;40;20430;-68
2021/05/31 11:06:42;;;;;;;2.72;1.85;;;22.20;36.10;;;;;;3573682;40;20033;-67
2021/05/31 11:09:20;;;;;;;1.90;1.55;;;22.20;36.50;;;;;;3574612;40;20033;-68
2021/05/31 11:11:49;;;;;;;3.75;1.83;;;22.20;35.60;;;;;;3573396;40;20041;-68
2021/05/31 11:14:17;;;;;;;5.78;2.33;;;22.00;35.20;;;;;;3576497;40;20036;-67
2021/05/31 11:16:54;;;;;;;4.55;1.73;;;22.00;35.40;;;;;;3573933;40;20518;-67
2021/05/31 11:19:33;;;;;;;3.22;1.50;;;22.00;35.60;;;;;;3573732;40;20719;-68
2021/05/31 11:21:59;;;;;;;3.33;1.58;;;22.00;36.30;;;;;;3573985;40;20033;-68
2021/05/31 11:24:25;;;;;;;3.53;1.77;;;22.00;36.60;;;;;;3572871;40;20082;-68
2021/05/31 11:26:50;;;;;;;4.07;1.83;;;22.10;36.60;;;;;;3573590;40;20201;-68
2021/05/31 11:29:16;;;;;;;5.10;1.90;;;22.10;35.80;;;;;;3573430;40;20024;-68
2021/05/31 11:31:45;;;;;;;5.35;1.98;;;22.10;36.80;;;;;;3574646;40;20021;-68
2021/05/31 11:34:12;;;;;;;4.47;2.33;;;22.10;36.50;;;;;;3576163;40;20048;-68
2021/05/31 11:36:38;;;;;;;3.92;1.88;;;22.10;36.20;;;;;;3575294;40;20030;-68
2021/05/31 11:39:13;;;;;;;4.18;1.83;;;22.10;36.20;;;;;;3571548;40;20804;-68
2021/05/31 11:41:43;;;;;;;5.25;2.08;;;22.20;35.70;;;;;;3573621;40;20040;-68
2021/05/31 11:44:11;;;;;;;2.47;1.80;;;22.30;34.20;;;;;;3569504;40;20133;-68
2021/05/31 11:46:57;;;;;;;4.07;2.03;;;22.30;35.20;;;;;;3576365;40;20436;-68
2021/05/31 11:49:25;;;;;;;3.83;2.10;;;22.20;34.80;;;;;;3576370;40;20068;-67
2021/05/31 11:52:04;;;;;;;1.95;1.50;;;22.20;33.80;;;;;;3570460;40;20036;-66
2021/05/31 11:54:33;;;;;;;2.75;1.90;;;22.20;35.30;;;;;;3572893;40;20045;-66
2021/05/31 11:57:01;;;;;;;2.92;1.75;;;22.20;35.40;;;;;;3575841;40;20035;-66
2021/05/31 11:59:35;;;;;;;5.00;1.60;;;22.30;35.10;;;;;;3575021;40;20040;-66
2021/05/31 12:02:08;;;;;;;19.25;2.88;;;22.30;35.30;;;;;;3577197;40;20056;-66
2021/05/31 12:04:36;;;;;;;3.45;1.50;;;22.50;34.90;;;;;;3581071;40;20029;-66
2021/05/31 12:07:13;;;;;;;3.65;1.60;;;22.50;34.30;;;;;;3578934;40;20028;-67
2021/05/31 12:09:44;;;;;;;3.17;1.45;;;22.60;33.60;;;;;;3574733;40;20215;-67
2021/05/31 12:12:14;;;;;;;3.83;1.67;;;22.70;33.50;;;;;;3576199;40;20017;-65
2021/05/31 12:14:51;;;;;;;2.50;1.52;;;22.70;32.80;;;;;;3571896;40;20036;-64
2021/05/31 12:17:19;;;;;;;4.22;1.85;;;22.70;33.80;;;;;;3571971;40;20036;-65
2021/05/31 12:19:49;;;;;;;3.53;1.40;;;22.60;33.30;;;;;;3578723;40;20029;-64
2021/05/31 12:22:15;;;;;;;3.17;1.52;;;22.60;34.30;;;;;;3574163;40;20040;-64
2021/05/31 12:24:53;;;;;;;2.40;1.40;;;22.50;33.40;;;;;;3575059;40;20044;-65
2021/05/31 12:27:35;;;;;;;2.63;1.60;;;22.50;32.90;;;;;;3575604;40;20095;-65
2021/05/31 12:30:05;;;;;;;2.83;1.77;;;22.50;33.80;;;;;;3574707;40;20047;-65
2021/05/31 12:32:33;;;;;;;3.05;1.40;;;22.50;33.50;;;;;;3574813;40;20028;-64
2021/05/31 12:34:58;;;;;;;3.78;1.77;;;22.50;31.50;;;;;;3578228;40;20048;-64
2021/05/31 12:37:35;;;;;;;2.92;1.50;;;22.40;32.40;;;;;;3576988;40;20083;-64
2021/05/31 12:40:07;;;;;;;5.05;1.65;;;22.40;33.20;;;;;;3575900;40;20040;-65
2021/05/31 12:42:34;;;;;;;2.25;1.63;;;22.50;32.30;;;;;;3579717;40;20044;-65
2021/05/31 12:45:03;;;;;;;2.17;1.42;;;22.60;32.00;;;;;;3576660;40;20040;-65
2021/05/31 12:47:37;;;;;;;1.85;1.30;;;22.70;33.20;;;;;;3571563;40;20037;-65
2021/05/31 12:50:22;;;;;;;5.65;1.58;;;22.70;32.00;;;;;;3575592;40;20044;-65
2021/05/31 12:52:48;;;;;;;1.42;1.30;;;22.80;33.10;;;;;;3569160;40;20029;-65
2021/05/31 12:55:27;;;;;;;2.22;1.30;;;22.90;32.30;;;;;;3571285;40;20613;-64
2021/05/31 12:57:54;;;;;;;2.28;1.45;;;23.00;32.40;;;;;;3572916;40;20037;-65
2021/05/31 13:00:30;;;;;;;2.78;1.42;;;23.20;31.90;;;;;;3573734;40;20057;-64
2021/05/31 13:03:03;;;;;;;7.80;1.80;;;23.20;31.50;;;;;;3576268;40;20032;-65
2021/05/31 13:05:34;;;;;;;1.60;1.25;;;23.10;29.70;;;;;;3574752;40;20029;-65
2021/05/31 13:08:04;;;;;;;2.78;1.40;;;23.10;31.20;;;;;;3578794;40;20025;-65
2021/05/31 13:10:34;;;;;;;3.58;1.50;;;23.10;32.00;;;;;;3574827;40;20025;-65
2021/05/31 13:13:03;;;;;;;3.47;1.30;;;23.10;32.30;;;;;;3574511;40;20018;-65